sensor_id;sensor_type;location;lat;lon;timestamp;pressure;altitude;pressure_sealevel;temperature;humidity
45991;BME280;31721;41.740;-88.000;2023-02-16T00:01:07;98917.00;;;3.32;55.36
45991;BME280;31721;41.740;-88.000;2023-02-16T00:03:41;98919.07;;;3.39;54.99
45991;BME280;31721;41.740;-88.000;2023-02-16T00:06:09;98917.44;;;3.50;56.13
45991;BME280;31721;41.740;-88.000;2023-02-16T00:08:37;98925.84;;;3.34;55.65
45991;BME280;31721;41.740;-88.000;2023-02-16T00:11:04;98934.27;;;3.49;56.31
45991;BME280;31721;41.740;-88.000;2023-02-16T00:13:32;98937.66;;;3.50;56.13
45991;BME280;31721;41.740;-88.000;2023-02-16T00:16:01;98925.39;;;3.57;56.43
45991;BME280;31721;41.740;-88.000;2023-02-16T00:18:28;98920.57;;;3.42;56.20
45991;BME280;31721;41.740;-88.000;2023-02-16T00:20:56;98924.52;;;3.51;56.33
45991;BME280;31721;41.740;-88.000;2023-02-16T00:23:24;98922.49;;;3.38;56.48
45991;BME280;31721;41.740;-88.000;2023-02-16T00:25:51;98929.03;;;3.51;56.61
45991;BME280;31721;41.740;-88.000;2023-02-16T00:28:20;98933.47;;;3.59;56.49
45991;BME280;31721;41.740;-88.000;2023-02-16T00:30:47;98940.32;;;3.32;55.74
45991;BME280;31721;41.740;-88.000;2023-02-16T00:33:16;98949.28;;;3.55;56.46
45991;BME280;31721;41.740;-88.000;2023-02-16T00:35:45;98953.93;;;3.38;56.31
45991;BME280;31721;41.740;-88.000;2023-02-16T00:38:13;98953.60;;;3.49;55.43
45991;BME280;31721;41.740;-88.000;2023-02-16T00:40:42;98958.51;;;3.42;56.10
45991;BME280;31721;41.740;-88.000;2023-02-16T00:43:18;98956.78;;;3.17;56.10
45991;BME280;31721;41.740;-88.000;2023-02-16T00:45:50;98960.16;;;2.89;56.16
45991;BME280;31721;41.740;-88.000;2023-02-16T00:48:18;98960.06;;;2.88;56.13
45991;BME280;31721;41.740;-88.000;2023-02-16T00:50:45;98963.94;;;3.09;55.93
45991;BME280;31721;41.740;-88.000;2023-02-16T00:53:13;98967.62;;;3.19;56.24
45991;BME280;31721;41.740;-88.000;2023-02-16T00:55:42;98977.81;;;2.73;55.42
45991;BME280;31721;41.740;-88.000;2023-02-16T00:58:16;98984.70;;;2.96;55.80
45991;BME280;31721;41.740;-88.000;2023-02-16T01:00:51;98984.76;;;2.96;55.59
45991;BME280;31721;41.740;-88.000;2023-02-16T01:03:22;98989.69;;;2.89;55.91
45991;BME280;31721;41.740;-88.000;2023-02-16T01:05:51;99001.47;;;2.93;55.36
45991;BME280;31721;41.740;-88.000;2023-02-16T01:08:19;99007.46;;;2.99;55.86
45991;BME280;31721;41.740;-88.000;2023-02-16T01:10:48;99018.41;;;3.26;55.61
45991;BME280;31721;41.740;-88.000;2023-02-16T01:13:17;99014.26;;;3.19;55.49
45991;BME280;31721;41.740;-88.000;2023-02-16T01:15:45;99014.95;;;3.09;55.36
45991;BME280;31721;41.740;-88.000;2023-02-16T01:18:15;99017.58;;;2.96;55.20
45991;BME280;31721;41.740;-88.000;2023-02-16T01:20:44;99013.71;;;2.86;55.23
45991;BME280;31721;41.740;-88.000;2023-02-16T01:23:12;99003.42;;;2.92;55.05
45991;BME280;31721;41.740;-88.000;2023-02-16T01:25:41;98998.04;;;2.58;54.92
45991;BME280;31721;41.740;-88.000;2023-02-16T01:28:17;99006.30;;;2.55;55.77
45991;BME280;31721;41.740;-88.000;2023-02-16T01:30:45;98997.27;;;2.60;54.60
45991;BME280;31721;41.740;-88.000;2023-02-16T01:33:13;98991.67;;;2.77;55.73
45991;BME280;31721;41.740;-88.000;2023-02-16T01:35:40;99002.11;;;2.86;55.55
45991;BME280;31721;41.740;-88.000;2023-02-16T01:38:15;99009.51;;;2.85;55.39
45991;BME280;31721;41.740;-88.000;2023-02-16T01:40:49;99019.22;;;2.83;55.56
45991;BME280;31721;41.740;-88.000;2023-02-16T01:43:21;99025.81;;;2.81;55.28
45991;BME280;31721;41.740;-88.000;2023-02-16T01:45:57;99024.75;;;2.34;55.93
45991;BME280;31721;41.740;-88.000;2023-02-16T01:48:27;99007.19;;;2.62;55.43
45991;BME280;31721;41.740;-88.000;2023-02-16T01:51:10;98990.13;;;2.62;55.47
45991;BME280;31721;41.740;-88.000;2023-02-16T01:53:41;98983.11;;;2.75;55.54
45991;BME280;31721;41.740;-88.000;2023-02-16T01:56:16;98983.82;;;2.52;54.73
45991;BME280;31721;41.740;-88.000;2023-02-16T01:58:48;98983.43;;;2.54;55.47
45991;BME280;31721;41.740;-88.000;2023-02-16T02:01:54;98993.04;;;2.79;55.47
45991;BME280;31721;41.740;-88.000;2023-02-16T02:04:26;99002.28;;;2.91;55.53
45991;BME280;31721;41.740;-88.000;2023-02-16T02:06:56;99013.87;;;2.91;55.32
45991;BME280;31721;41.740;-88.000;2023-02-16T02:09:26;99027.07;;;2.99;55.30
45991;BME280;31721;41.740;-88.000;2023-02-16T02:12:02;99028.36;;;2.98;55.25
45991;BME280;31721;41.740;-88.000;2023-02-16T02:14:37;99028.95;;;3.11;55.21
45991;BME280;31721;41.740;-88.000;2023-02-16T02:17:08;99022.85;;;3.14;55.17
45991;BME280;31721;41.740;-88.000;2023-02-16T02:19:44;99025.73;;;3.22;54.76
45991;BME280;31721;41.740;-88.000;2023-02-16T02:22:30;99024.52;;;2.86;54.31
45991;BME280;31721;41.740;-88.000;2023-02-16T02:25:24;99032.28;;;2.79;54.98
45991;BME280;31721;41.740;-88.000;2023-02-16T02:28:00;99045.64;;;2.30;55.14
45991;BME280;31721;41.740;-88.000;2023-02-16T02:30:40;99053.12;;;2.46;55.21
45991;BME280;31721;41.740;-88.000;2023-02-16T02:33:25;99062.80;;;2.62;55.23
45991;BME280;31721;41.740;-88.000;2023-02-16T02:36:06;99067.81;;;2.16;54.15
45991;BME280;31721;41.740;-88.000;2023-02-16T02:38:42;99084.49;;;2.39;55.10
45991;BME280;31721;41.740;-88.000;2023-02-16T02:41:19;99101.12;;;2.16;54.46
45991;BME280;31721;41.740;-88.000;2023-02-16T02:43:55;99120.22;;;2.36;55.02
45991;BME280;31721;41.740;-88.000;2023-02-16T02:46:26;99127.32;;;2.13;54.45
45991;BME280;31721;41.740;-88.000;2023-02-16T02:48:56;99118.65;;;1.51;54.52
45991;BME280;31721;41.740;-88.000;2023-02-16T02:51:25;99123.34;;;1.75;55.19
45991;BME280;31721;41.740;-88.000;2023-02-16T02:53:55;99133.04;;;1.90;55.41
45991;BME280;31721;41.740;-88.000;2023-02-16T02:56:23;99146.02;;;1.97;55.32
45991;BME280;31721;41.740;-88.000;2023-02-16T02:58:54;99148.56;;;1.88;55.89
45991;BME280;31721;41.740;-88.000;2023-02-16T03:01:23;99152.20;;;1.68;55.44
45991;BME280;31721;41.740;-88.000;2023-02-16T03:03:54;99152.82;;;1.95;54.80
45991;BME280;31721;41.740;-88.000;2023-02-16T03:06:25;99157.22;;;2.20;55.34
45991;BME280;31721;41.740;-88.000;2023-02-16T03:08:58;99162.12;;;2.31;55.18
45991;BME280;31721;41.740;-88.000;2023-02-16T03:11:28;99159.44;;;2.40;54.85
45991;BME280;31721;41.740;-88.000;2023-02-16T03:13:58;99152.53;;;2.04;55.06
45991;BME280;31721;41.740;-88.000;2023-02-16T03:16:32;99157.68;;;1.46;55.12
45991;BME280;31721;41.740;-88.000;2023-02-16T03:19:02;99161.31;;;1.72;55.45
45991;BME280;31721;41.740;-88.000;2023-02-16T03:21:31;99163.45;;;1.58;55.09
45991;BME280;31721;41.740;-88.000;2023-02-16T03:24:01;99170.18;;;1.90;55.08
45991;BME280;31721;41.740;-88.000;2023-02-16T03:26:31;99177.25;;;2.02;55.25
45991;BME280;31721;41.740;-88.000;2023-02-16T03:29:00;99190.45;;;1.51;55.59
45991;BME280;31721;41.740;-88.000;2023-02-16T03:31:31;99186.13;;;1.86;55.37
45991;BME280;31721;41.740;-88.000;2023-02-16T03:34:02;99167.04;;;2.10;55.24
45991;BME280;31721;41.740;-88.000;2023-02-16T03:36:33;99154.75;;;1.65;54.86
45991;BME280;31721;41.740;-88.000;2023-02-16T03:39:02;99149.01;;;1.49;55.70
45991;BME280;31721;41.740;-88.000;2023-02-16T03:41:32;99138.90;;;1.40;55.81
45991;BME280;31721;41.740;-88.000;2023-02-16T03:44:01;99131.05;;;1.33;55.88
45991;BME280;31721;41.740;-88.000;2023-02-16T03:46:28;99128.37;;;1.32;55.78
45991;BME280;31721;41.740;-88.000;2023-02-16T03:48:57;99135.78;;;1.56;55.88
45991;BME280;31721;41.740;-88.000;2023-02-16T03:51:24;99137.96;;;1.67;55.74
45991;BME280;31721;41.740;-88.000;2023-02-16T03:53:52;99144.89;;;1.89;55.66
45991;BME280;31721;41.740;-88.000;2023-02-16T03:56:19;99137.55;;;2.09;55.50
45991;BME280;31721;41.740;-88.000;2023-02-16T03:58:47;99140.01;;;1.61;55.53
45991;BME280;31721;41.740;-88.000;2023-02-16T04:01:15;99140.36;;;1.56;55.45
45991;BME280;31721;41.740;-88.000;2023-02-16T04:03:43;99141.73;;;1.58;55.05
45991;BME280;31721;41.740;-88.000;2023-02-16T04:06:12;99135.63;;;1.76;55.43
45991;BME280;31721;41.740;-88.000;2023-02-16T04:08:40;99129.10;;;0.86;56.02
45991;BME280;31721;41.740;-88.000;2023-02-16T04:11:07;99125.52;;;0.93;56.10
45991;BME280;31721;41.740;-88.000;2023-02-16T04:13:35;99132.37;;;1.08;56.05
45991;BME280;31721;41.740;-88.000;2023-02-16T04:16:03;99137.62;;;1.54;55.94
45991;BME280;31721;41.740;-88.000;2023-02-16T04:18:32;99133.42;;;1.13;55.79
45991;BME280;31721;41.740;-88.000;2023-02-16T04:21:00;99131.76;;;0.96;56.86
45991;BME280;31721;41.740;-88.000;2023-02-16T04:23:28;99131.76;;;1.37;56.11
45991;BME280;31721;41.740;-88.000;2023-02-16T04:25:56;99133.62;;;1.30;55.85
45991;BME280;31721;41.740;-88.000;2023-02-16T04:28:24;99136.64;;;1.09;56.21
45991;BME280;31721;41.740;-88.000;2023-02-16T04:30:51;99135.60;;;1.02;56.38
45991;BME280;31721;41.740;-88.000;2023-02-16T04:33:20;99141.98;;;1.27;56.06
45991;BME280;31721;41.740;-88.000;2023-02-16T04:35:47;99146.20;;;1.44;55.96
45991;BME280;31721;41.740;-88.000;2023-02-16T04:38:15;99139.22;;;1.43;55.98
45991;BME280;31721;41.740;-88.000;2023-02-16T04:40:42;99142.71;;;1.49;55.82
45991;BME280;31721;41.740;-88.000;2023-02-16T04:43:11;99134.23;;;1.24;55.79
45991;BME280;31721;41.740;-88.000;2023-02-16T04:45:38;99133.21;;;1.53;56.02
45991;BME280;31721;41.740;-88.000;2023-02-16T04:48:07;99128.86;;;1.63;55.95
45991;BME280;31721;41.740;-88.000;2023-02-16T04:50:34;99127.24;;;1.56;56.16
45991;BME280;31721;41.740;-88.000;2023-02-16T04:53:01;99129.83;;;1.51;56.11
45991;BME280;31721;41.740;-88.000;2023-02-16T04:55:29;99139.01;;;1.51;55.82
45991;BME280;31721;41.740;-88.000;2023-02-16T04:57:57;99137.57;;;2.02;56.07
45991;BME280;31721;41.740;-88.000;2023-02-16T05:00:24;99128.10;;;2.03;55.93
45991;BME280;31721;41.740;-88.000;2023-02-16T05:02:52;99133.37;;;2.19;55.71
45991;BME280;31721;41.740;-88.000;2023-02-16T05:05:20;99138.82;;;2.11;55.47
45991;BME280;31721;41.740;-88.000;2023-02-16T05:07:48;99124.89;;;1.80;55.26
45991;BME280;31721;41.740;-88.000;2023-02-16T05:10:15;99123.79;;;1.99;55.17
45991;BME280;31721;41.740;-88.000;2023-02-16T05:12:43;99119.35;;;1.78;55.20
45991;BME280;31721;41.740;-88.000;2023-02-16T05:15:10;99124.90;;;2.04;55.56
45991;BME280;31721;41.740;-88.000;2023-02-16T05:17:38;99118.30;;;1.46;55.41
45991;BME280;31721;41.740;-88.000;2023-02-16T05:20:07;99105.91;;;1.45;56.22
45991;BME280;31721;41.740;-88.000;2023-02-16T05:22:34;99107.87;;;1.83;56.16
45991;BME280;31721;41.740;-88.000;2023-02-16T05:25:02;99109.24;;;1.94;55.85
45991;BME280;31721;41.740;-88.000;2023-02-16T05:27:30;99113.21;;;2.29;55.67
45991;BME280;31721;41.740;-88.000;2023-02-16T05:29:59;99114.72;;;2.32;55.34
45991;BME280;31721;41.740;-88.000;2023-02-16T05:32:26;99104.42;;;2.40;55.29
45991;BME280;31721;41.740;-88.000;2023-02-16T05:34:54;99082.36;;;2.46;55.01
45991;BME280;31721;41.740;-88.000;2023-02-16T05:37:21;99069.79;;;2.31;54.77
45991;BME280;31721;41.740;-88.000;2023-02-16T05:39:49;99075.64;;;2.32;54.54
45991;BME280;31721;41.740;-88.000;2023-02-16T05:42:16;99073.71;;;2.21;54.88
45991;BME280;31721;41.740;-88.000;2023-02-16T05:44:44;99072.06;;;2.34;54.82
45991;BME280;31721;41.740;-88.000;2023-02-16T05:47:12;99068.65;;;2.47;54.81
45991;BME280;31721;41.740;-88.000;2023-02-16T05:49:40;99065.56;;;2.44;54.71
45991;BME280;31721;41.740;-88.000;2023-02-16T05:52:08;99073.13;;;2.09;54.62
45991;BME280;31721;41.740;-88.000;2023-02-16T05:54:35;99079.58;;;2.40;54.55
45991;BME280;31721;41.740;-88.000;2023-02-16T05:57:03;99067.77;;;2.44;54.61
45991;BME280;31721;41.740;-88.000;2023-02-16T05:59:31;99059.46;;;2.47;54.47
45991;BME280;31721;41.740;-88.000;2023-02-16T06:01:59;99057.79;;;2.33;54.43
45991;BME280;31721;41.740;-88.000;2023-02-16T06:04:27;99053.90;;;2.48;54.12
45991;BME280;31721;41.740;-88.000;2023-02-16T06:06:54;99047.56;;;2.39;54.07
45991;BME280;31721;41.740;-88.000;2023-02-16T06:09:22;99051.71;;;2.11;54.17
45991;BME280;31721;41.740;-88.000;2023-02-16T06:11:49;99047.26;;;2.13;54.09
45991;BME280;31721;41.740;-88.000;2023-02-16T06:14:19;99057.55;;;2.30;54.00
45991;BME280;31721;41.740;-88.000;2023-02-16T06:16:48;99065.28;;;2.35;54.10
45991;BME280;31721;41.740;-88.000;2023-02-16T06:19:18;99071.71;;;2.05;53.55
45991;BME280;31721;41.740;-88.000;2023-02-16T06:21:47;99081.01;;;2.09;54.10
45991;BME280;31721;41.740;-88.000;2023-02-16T06:24:15;99082.08;;;2.18;53.99
45991;BME280;31721;41.740;-88.000;2023-02-16T06:26:43;99083.69;;;1.83;54.25
45991;BME280;31721;41.740;-88.000;2023-02-16T06:29:11;99082.35;;;1.97;54.23
45991;BME280;31721;41.740;-88.000;2023-02-16T06:31:39;99066.66;;;1.98;54.31
45991;BME280;31721;41.740;-88.000;2023-02-16T06:34:06;99053.17;;;1.90;54.15
45991;BME280;31721;41.740;-88.000;2023-02-16T06:36:34;99042.04;;;1.64;54.37
45991;BME280;31721;41.740;-88.000;2023-02-16T06:39:02;99032.89;;;1.86;54.23
45991;BME280;31721;41.740;-88.000;2023-02-16T06:41:30;99030.34;;;1.61;54.03
45991;BME280;31721;41.740;-88.000;2023-02-16T06:43:58;99029.34;;;1.31;54.51
45991;BME280;31721;41.740;-88.000;2023-02-16T06:46:26;99012.81;;;1.51;54.40
45991;BME280;31721;41.740;-88.000;2023-02-16T06:48:55;99002.11;;;1.57;54.19
45991;BME280;31721;41.740;-88.000;2023-02-16T06:51:23;99006.82;;;1.63;54.04
45991;BME280;31721;41.740;-88.000;2023-02-16T06:53:51;99011.35;;;1.71;54.03
45991;BME280;31721;41.740;-88.000;2023-02-16T06:56:19;99012.84;;;1.65;53.90
45991;BME280;31721;41.740;-88.000;2023-02-16T06:58:47;99014.06;;;1.70;53.96
45991;BME280;31721;41.740;-88.000;2023-02-16T07:01:15;99013.33;;;1.72;53.91
45991;BME280;31721;41.740;-88.000;2023-02-16T07:03:43;99001.19;;;1.74;53.85
45991;BME280;31721;41.740;-88.000;2023-02-16T07:06:11;98998.85;;;1.79;53.81
45991;BME280;31721;41.740;-88.000;2023-02-16T07:08:39;99012.77;;;1.68;53.82
45991;BME280;31721;41.740;-88.000;2023-02-16T07:11:06;99003.38;;;1.67;53.87
45991;BME280;31721;41.740;-88.000;2023-02-16T07:13:34;98997.43;;;1.69;53.72
45991;BME280;31721;41.740;-88.000;2023-02-16T07:16:02;98997.48;;;1.75;53.79
45991;BME280;31721;41.740;-88.000;2023-02-16T07:18:30;98991.21;;;1.72;53.79
45991;BME280;31721;41.740;-88.000;2023-02-16T07:20:58;98984.94;;;1.68;53.79
45991;BME280;31721;41.740;-88.000;2023-02-16T07:23:26;98987.72;;;1.60;53.77
45991;BME280;31721;41.740;-88.000;2023-02-16T07:25:54;98994.36;;;1.64;53.78
45991;BME280;31721;41.740;-88.000;2023-02-16T07:28:21;98999.00;;;1.66;53.88
45991;BME280;31721;41.740;-88.000;2023-02-16T07:30:49;98996.36;;;1.54;53.87
45991;BME280;31721;41.740;-88.000;2023-02-16T07:33:17;98989.04;;;1.65;53.93
45991;BME280;31721;41.740;-88.000;2023-02-16T07:35:44;98994.94;;;1.68;54.01
45991;BME280;31721;41.740;-88.000;2023-02-16T07:38:12;99008.04;;;1.61;53.74
45991;BME280;31721;41.740;-88.000;2023-02-16T07:40:40;99030.15;;;1.70;53.77
45991;BME280;31721;41.740;-88.000;2023-02-16T07:43:07;99031.87;;;1.66;53.68
45991;BME280;31721;41.740;-88.000;2023-02-16T07:45:35;99026.22;;;1.73;53.67
45991;BME280;31721;41.740;-88.000;2023-02-16T07:48:03;99019.31;;;1.73;53.63
45991;BME280;31721;41.740;-88.000;2023-02-16T07:50:32;99009.93;;;1.71;53.49
45991;BME280;31721;41.740;-88.000;2023-02-16T07:53:01;99000.28;;;1.55;53.47
45991;BME280;31721;41.740;-88.000;2023-02-16T07:55:28;98998.84;;;1.62;53.46
45991;BME280;31721;41.740;-88.000;2023-02-16T07:57:56;99005.93;;;1.52;53.49
45991;BME280;31721;41.740;-88.000;2023-02-16T08:00:25;99015.70;;;1.52;53.49
45991;BME280;31721;41.740;-88.000;2023-02-16T08:02:53;99024.96;;;1.52;53.49
45991;BME280;31721;41.740;-88.000;2023-02-16T08:05:20;99037.92;;;1.61;53.47
45991;BME280;31721;41.740;-88.000;2023-02-16T08:07:48;99039.61;;;1.54;53.43
45991;BME280;31721;41.740;-88.000;2023-02-16T08:10:16;99038.58;;;1.61;53.42
45991;BME280;31721;41.740;-88.000;2023-02-16T08:12:44;99040.41;;;1.48;53.45
45991;BME280;31721;41.740;-88.000;2023-02-16T08:15:12;99040.83;;;1.23;53.49
45991;BME280;31721;41.740;-88.000;2023-02-16T08:17:39;99027.98;;;1.42;53.55
45991;BME280;31721;41.740;-88.000;2023-02-16T08:20:08;99017.71;;;1.46;53.58
45991;BME280;31721;41.740;-88.000;2023-02-16T08:22:36;99007.95;;;1.09;53.33
45991;BME280;31721;41.740;-88.000;2023-02-16T08:25:03;99004.67;;;1.39;53.75
45991;BME280;31721;41.740;-88.000;2023-02-16T08:27:31;98985.31;;;1.35;53.87
45991;BME280;31721;41.740;-88.000;2023-02-16T08:29:58;98980.36;;;1.16;53.66
45991;BME280;31721;41.740;-88.000;2023-02-16T08:32:26;98970.05;;;1.19;53.81
45991;BME280;31721;41.740;-88.000;2023-02-16T08:34:53;98972.83;;;1.26;53.90
45991;BME280;31721;41.740;-88.000;2023-02-16T08:37:22;98971.23;;;1.17;53.92
45991;BME280;31721;41.740;-88.000;2023-02-16T08:39:49;98955.23;;;1.08;53.95
45991;BME280;31721;41.740;-88.000;2023-02-16T08:42:17;98948.33;;;1.22;54.01
45991;BME280;31721;41.740;-88.000;2023-02-16T08:44:44;98937.44;;;1.09;53.82
45991;BME280;31721;41.740;-88.000;2023-02-16T08:47:12;98930.63;;;1.04;54.11
45991;BME280;31721;41.740;-88.000;2023-02-16T08:49:41;98928.08;;;0.75;54.50
45991;BME280;31721;41.740;-88.000;2023-02-16T08:52:08;98913.77;;;0.75;54.32
45991;BME280;31721;41.740;-88.000;2023-02-16T08:54:35;98901.09;;;0.91;54.22
45991;BME280;31721;41.740;-88.000;2023-02-16T08:57:03;98896.66;;;0.95;54.09
45991;BME280;31721;41.740;-88.000;2023-02-16T08:59:31;98888.01;;;0.99;53.97
45991;BME280;31721;41.740;-88.000;2023-02-16T09:01:59;98877.69;;;0.98;54.16
45991;BME280;31721;41.740;-88.000;2023-02-16T09:04:27;98885.66;;;0.93;54.12
45991;BME280;31721;41.740;-88.000;2023-02-16T09:06:57;98891.52;;;1.01;54.24
45991;BME280;31721;41.740;-88.000;2023-02-16T09:09:25;98895.99;;;1.08;54.43
45991;BME280;31721;41.740;-88.000;2023-02-16T09:11:53;98904.58;;;1.07;54.26
45991;BME280;31721;41.740;-88.000;2023-02-16T09:14:21;98911.47;;;1.14;54.42
45991;BME280;31721;41.740;-88.000;2023-02-16T09:16:49;98906.73;;;1.21;54.20
45991;BME280;31721;41.740;-88.000;2023-02-16T09:19:19;98907.44;;;0.89;54.41
45991;BME280;31721;41.740;-88.000;2023-02-16T09:21:47;98917.58;;;0.97;54.29
45991;BME280;31721;41.740;-88.000;2023-02-16T09:24:15;98924.49;;;1.09;54.10
45991;BME280;31721;41.740;-88.000;2023-02-16T09:26:43;98937.85;;;1.12;54.17
45991;BME280;31721;41.740;-88.000;2023-02-16T09:29:11;98953.24;;;1.23;54.10
45991;BME280;31721;41.740;-88.000;2023-02-16T09:31:40;98970.54;;;1.08;54.37
45991;BME280;31721;41.740;-88.000;2023-02-16T09:34:14;98971.56;;;1.17;54.40
45991;BME280;31721;41.740;-88.000;2023-02-16T09:36:43;98965.84;;;1.15;54.29
45991;BME280;31721;41.740;-88.000;2023-02-16T09:39:11;98962.51;;;1.30;54.50
45991;BME280;31721;41.740;-88.000;2023-02-16T09:41:55;98963.96;;;1.42;54.36
45991;BME280;31721;41.740;-88.000;2023-02-16T09:44:35;98967.87;;;1.43;54.33
45991;BME280;31721;41.740;-88.000;2023-02-16T09:47:13;98967.49;;;1.47;54.35
45991;BME280;31721;41.740;-88.000;2023-02-16T09:49:43;98963.45;;;1.28;54.37
45991;BME280;31721;41.740;-88.000;2023-02-16T09:52:18;98947.87;;;1.39;54.51
45991;BME280;31721;41.740;-88.000;2023-02-16T09:54:53;98925.74;;;1.34;54.47
45991;BME280;31721;41.740;-88.000;2023-02-16T09:57:31;98921.28;;;1.47;54.53
45991;BME280;31721;41.740;-88.000;2023-02-16T10:00:04;98910.42;;;1.40;54.43
45991;BME280;31721;41.740;-88.000;2023-02-16T10:02:42;98916.23;;;1.61;54.54
45991;BME280;31721;41.740;-88.000;2023-02-16T10:05:18;98913.66;;;1.51;54.55
45991;BME280;31721;41.740;-88.000;2023-02-16T10:07:56;98893.44;;;1.51;54.51
45991;BME280;31721;41.740;-88.000;2023-02-16T10:10:31;98874.77;;;1.62;54.59
45991;BME280;31721;41.740;-88.000;2023-02-16T10:13:03;98869.92;;;1.51;54.59
45991;BME280;31721;41.740;-88.000;2023-02-16T10:15:34;98871.95;;;1.43;54.62
45991;BME280;31721;41.740;-88.000;2023-02-16T10:18:07;98871.91;;;1.41;54.85
45991;BME280;31721;41.740;-88.000;2023-02-16T10:20:42;98866.09;;;1.37;54.91
45991;BME280;31721;41.740;-88.000;2023-02-16T10:23:23;98852.71;;;1.49;54.83
45991;BME280;31721;41.740;-88.000;2023-02-16T10:25:58;98846.17;;;1.22;55.20
45991;BME280;31721;41.740;-88.000;2023-02-16T10:28:34;98834.26;;;1.29;55.17
45991;BME280;31721;41.740;-88.000;2023-02-16T10:31:13;98828.81;;;1.47;55.02
45991;BME280;31721;41.740;-88.000;2023-02-16T10:33:45;98821.36;;;1.47;55.20
45991;BME280;31721;41.740;-88.000;2023-02-16T10:36:18;98813.39;;;1.56;55.01
45991;BME280;31721;41.740;-88.000;2023-02-16T10:38:53;98818.23;;;1.41;55.25
45991;BME280;31721;41.740;-88.000;2023-02-16T10:41:29;98813.25;;;1.38;55.21
45991;BME280;31721;41.740;-88.000;2023-02-16T10:44:03;98810.26;;;1.51;55.34
45991;BME280;31721;41.740;-88.000;2023-02-16T10:46:39;98802.03;;;1.48;55.57
45991;BME280;31721;41.740;-88.000;2023-02-16T10:49:09;98804.63;;;1.33;55.87
45991;BME280;31721;41.740;-88.000;2023-02-16T10:51:38;98789.16;;;1.39;55.57
45991;BME280;31721;41.740;-88.000;2023-02-16T10:54:13;98767.83;;;1.24;56.48
45991;BME280;31721;41.740;-88.000;2023-02-16T10:56:52;98770.16;;;1.19;56.32
45991;BME280;31721;41.740;-88.000;2023-02-16T10:59:23;98772.09;;;1.21;56.26
45991;BME280;31721;41.740;-88.000;2023-02-16T11:01:52;98772.37;;;1.35;56.41
45991;BME280;31721;41.740;-88.000;2023-02-16T11:04:39;98764.31;;;1.25;56.43
45991;BME280;31721;41.740;-88.000;2023-02-16T11:07:11;98780.74;;;1.32;56.30
45991;BME280;31721;41.740;-88.000;2023-02-16T11:09:41;98788.18;;;1.33;56.37
45991;BME280;31721;41.740;-88.000;2023-02-16T11:12:23;98792.73;;;1.33;56.39
45991;BME280;31721;41.740;-88.000;2023-02-16T11:14:53;98799.31;;;1.51;56.08
45991;BME280;31721;41.740;-88.000;2023-02-16T11:17:23;98809.78;;;1.25;56.39
45991;BME280;31721;41.740;-88.000;2023-02-16T11:19:54;98805.92;;;1.29;56.54
45991;BME280;31721;41.740;-88.000;2023-02-16T11:22:32;98790.63;;;1.16;57.02
45991;BME280;31721;41.740;-88.000;2023-02-16T11:25:27;98781.75;;;1.13;56.80
45991;BME280;31721;41.740;-88.000;2023-02-16T11:27:56;98770.08;;;1.16;57.17
45991;BME280;31721;41.740;-88.000;2023-02-16T11:30:33;98761.33;;;1.21;56.58
45991;BME280;31721;41.740;-88.000;2023-02-16T11:33:03;98749.36;;;1.32;56.45
45991;BME280;31721;41.740;-88.000;2023-02-16T11:35:40;98738.22;;;0.76;57.29
45991;BME280;31721;41.740;-88.000;2023-02-16T11:38:26;98739.97;;;0.98;56.94
45991;BME280;31721;41.740;-88.000;2023-02-16T11:40:56;98736.15;;;0.89;57.36
45991;BME280;31721;41.740;-88.000;2023-02-16T11:43:27;98743.27;;;0.87;57.87
45991;BME280;31721;41.740;-88.000;2023-02-16T11:45:58;98742.71;;;0.67;57.82
45991;BME280;31721;41.740;-88.000;2023-02-16T11:48:29;98745.35;;;0.46;58.51
45991;BME280;31721;41.740;-88.000;2023-02-16T11:50:59;98744.17;;;0.95;57.29
45991;BME280;31721;41.740;-88.000;2023-02-16T11:53:29;98751.61;;;1.04;57.13
45991;BME280;31721;41.740;-88.000;2023-02-16T11:56:20;98752.46;;;1.10;56.74
45991;BME280;31721;41.740;-88.000;2023-02-16T11:59:05;98773.20;;;0.99;57.12
45991;BME280;31721;41.740;-88.000;2023-02-16T12:01:46;98798.82;;;1.06;56.85
45991;BME280;31721;41.740;-88.000;2023-02-16T12:04:25;98851.49;;;1.09;57.15
45991;BME280;31721;41.740;-88.000;2023-02-16T12:07:04;98887.65;;;1.32;56.64
45991;BME280;31721;41.740;-88.000;2023-02-16T12:09:40;98881.76;;;1.25;56.58
45991;BME280;31721;41.740;-88.000;2023-02-16T12:12:15;98916.34;;;1.16;56.53
45991;BME280;31721;41.740;-88.000;2023-02-16T12:14:54;98933.37;;;1.16;56.48
45991;BME280;31721;41.740;-88.000;2023-02-16T12:17:38;98935.10;;;1.17;56.34
45991;BME280;31721;41.740;-88.000;2023-02-16T12:20:23;98932.56;;;1.34;56.33
45991;BME280;31721;41.740;-88.000;2023-02-16T12:23:06;98945.23;;;1.43;56.17
45991;BME280;31721;41.740;-88.000;2023-02-16T12:25:45;98941.43;;;1.47;56.00
45991;BME280;31721;41.740;-88.000;2023-02-16T12:28:19;98912.05;;;1.30;56.22
45991;BME280;31721;41.740;-88.000;2023-02-16T12:30:59;98893.17;;;1.23;56.43
45991;BME280;31721;41.740;-88.000;2023-02-16T12:33:38;98874.62;;;1.07;56.68
45991;BME280;31721;41.740;-88.000;2023-02-16T12:36:24;98831.51;;;1.22;56.68
45991;BME280;31721;41.740;-88.000;2023-02-16T12:39:03;98809.11;;;0.94;57.33
45991;BME280;31721;41.740;-88.000;2023-02-16T12:41:47;98812.21;;;0.87;57.95
45991;BME280;31721;41.740;-88.000;2023-02-16T12:44:22;98828.70;;;1.04;57.29
45991;BME280;31721;41.740;-88.000;2023-02-16T12:46:59;98821.61;;;0.88;57.52
45991;BME280;31721;41.740;-88.000;2023-02-16T12:49:30;98803.92;;;1.05;57.70
45991;BME280;31721;41.740;-88.000;2023-02-16T12:52:03;98778.15;;;1.07;58.00
45991;BME280;31721;41.740;-88.000;2023-02-16T12:54:37;98759.45;;;0.93;58.03
45991;BME280;31721;41.740;-88.000;2023-02-16T12:57:11;98743.92;;;0.71;58.93
45991;BME280;31721;41.740;-88.000;2023-02-16T12:59:45;98740.47;;;0.94;58.39
45991;BME280;31721;41.740;-88.000;2023-02-16T13:02:19;98732.41;;;0.66;58.31
45991;BME280;31721;41.740;-88.000;2023-02-16T13:04:55;98715.28;;;0.70;59.04
45991;BME280;31721;41.740;-88.000;2023-02-16T13:07:30;98661.10;;;0.85;58.22
45991;BME280;31721;41.740;-88.000;2023-02-16T13:10:11;98694.01;;;0.66;58.75